Thebes, IL (62990)

11:39 PM CDT on October 01, 2014 (GMT -0500)
MesoWest McClure (IL 3 @ IL 146) IL US ILDOT | Change Station
CLOSE
Current Station
Personal Weather Station
Location: McClure, IL
Elevation: 347 ft
Nearby Weather Stations

Elev 347 ft 37.30 °N, 89.45 °W | Updated 44 minutes ago

Partly Cloudy
Partly Cloudy
68 °F
Feels Like 68 °F
N
0
Wind Variable Wind from North
Gusts 2.0 mph

Today
High -- | Low -- °F
--% Chance of Precip.
Yesterday
High -- | Low -- °F
Precip. -- in
6:53 AM 6:40 PM
First Quarter, 54% visible
Pressure 29.88 in
Visibility 10.0 miles
Clouds Scattered Clouds 7000 ft
Mostly Cloudy 8500 ft
Dew Point 63 °F
Humidity 84%
Rainfall -999.00 in
Snow Depth Not available.
UV 0 out of 12
Pollen 5.50 out of 12
Air Quality Not available.
Flu Activity Not available.
METAR KCGI 020353Z AUTO 16005KT 10SM SCT070 BKN085 22/18 A2989 RMK AO2 SLP118 T02220178

More Conditions Fewer Conditions

Pressure 29.88 in
Visibility 10.0 miles
Clouds Scattered Clouds 7000 ft
Mostly Cloudy 8500 ft
Dew Point 63 °F
Humidity 84%
Rainfall -999.00 in
Snow Depth Not available.
UV 0 out of 12
Pollen 5.50 out of 12
Air Quality Not available.
Flu Activity Not available.
METAR KCGI 020353Z AUTO 16005KT 10SM SCT070 BKN085 22/18 A2989 RMK AO2 SLP118 T02220178

More Conditions Fewer Conditions

10-Day Weather Forecast

Almanac

Astronomy

Oct. 01, 2014 Rise Set
Actual Time 6:53 AM CDT 6:40 PM CDT
Civil Twilight 6:27 AM CDT 7:06 PM CDT
Nautical Twilight 5:56 AM CDT 7:36 PM CDT
Astronomical Twilight 5:26 AM CDT 8:07 PM CDT
Moon 1:48 PM CDT (10/1) No Moon Set
Length of Visible Light 12h 39m
Length of Day
11h 47m
Tomorrow will be 2m 21s shorter.
First Quarter, 54% of the Moon is Illuminated
Oct 2
First Quarter
Oct 8
Full
Oct 15
Last Quarter
Oct 23
New
Oct 30
First Quarter

Yesterday's Extremes

State Highs State Lows

Community

WunderPhotos

Upload Photos

1,758,187 photos uploaded!

Nearby

Snow Depth

Station Depth Elevation
No new snow has been reported.

Earthquake Activity

City Distance Mag. Time & Date
No recent earthquake activity has been reported nearby.
Minimum magnitude displayed is 2.5.

Coastal Water Temperatures

Place Temperature
No Stations Reporting

Nearby Weather Stations